Time;durP1;ratioP1;P1;durP2;ratioP2;P2;SDS_P1;SDS_P2;PMS_P1;PMS_P2;Temp;Humidity;BMP_temperature;BMP_pressure;BME280_temperature;BME280_humidity;BME280_pressure;Samples;Min_cycle;Max_cycle;Signal;HPM_P1;HPM_P2
2022/12/22 03:28:11;;;;;;;4.28;3.88;;;;;;;0.27;59.29;95345.59;4951463;29;20270;-60
2022/12/22 03:30:38;;;;;;;3.50;3.00;;;;;;;0.58;57.97;95346.13;4951517;28;20218;-60
2022/12/22 03:33:05;;;;;;;14.02;6.53;;;;;;;0.79;57.58;95338.38;4951640;28;20744;-62
2022/12/22 03:35:32;;;;;;;14.93;5.55;;;;;;;0.99;56.82;95341.13;4951458;29;20664;-62
2022/12/22 03:38:02;;;;;;;3.67;3.33;;;;;;;0.87;57.35;95337.47;4951495;29;20208;-61
2022/12/22 03:40:30;;;;;;;1.95;1.85;;;;;;;0.88;56.48;95334.69;4951563;29;20206;-62
2022/12/22 03:48:27;;;;;;;7.20;5.88;;;;;;;0.45;57.41;95343.41;4951655;29;20199;-61
2022/12/22 03:50:54;;;;;;;11.07;8.13;;;;;;;0.09;58.28;95345.19;4951875;29;20251;-62
2022/12/22 03:53:21;;;;;;;9.38;7.38;;;;;;;-0.16;58.74;95338.69;4951142;29;20659;-63
2022/12/22 03:55:47;;;;;;;10.80;4.75;;;;;;;-0.04;58.75;95352.75;4951035;29;20870;-61
2022/12/22 03:58:14;;;;;;;7.10;5.15;;;;;;;0.28;57.85;95352.31;4951293;29;20214;-62
2022/12/22 04:00:41;;;;;;;21.05;11.50;;;;;;;0.17;57.15;95352.78;4951500;28;20295;-61
2022/12/22 04:03:08;;;;;;;18.60;8.45;;;;;;;-0.15;58.49;95350.59;4951212;29;20295;-62
2022/12/22 04:05:36;;;;;;;10.63;9.23;;;;;;;0.15;59.30;95351.38;4951189;29;20294;-61
2022/12/22 04:08:03;;;;;;;9.35;4.95;;;;;;;0.49;58.28;95349.81;4950877;28;20316;-61
2022/12/22 04:13:16;;;;;;;7.57;6.45;;;;;;;0.82;57.52;95339.81;4950883;29;20267;-62
2022/12/22 04:15:43;;;;;;;4.45;4.13;;;;;;;0.77;57.48;95340.34;4951172;29;20213;-61
2022/12/22 04:18:10;;;;;;;16.67;13.73;;;;;;;0.77;57.16;95342.94;4950837;29;20210;-61
2022/12/22 04:20:37;;;;;;;12.70;6.00;;;;;;;0.37;57.38;95340.94;4950646;29;20200;-62
2022/12/22 04:23:03;;;;;;;11.57;5.43;;;;;;;0.47;57.83;95344.03;4950410;29;20734;-62
2022/12/22 04:25:30;;;;;;;8.45;6.90;;;;;;;0.54;57.39;95336.34;4950712;29;20235;-61
2022/12/22 04:27:57;;;;;;;16.27;8.90;;;;;;;0.38;57.86;95345.13;4950434;29;20298;-61
2022/12/22 04:30:24;;;;;;;6.78;5.70;;;;;;;0.10;57.69;95339.03;4950355;29;20208;-63
2022/12/22 04:32:51;;;;;;;7.30;6.65;;;;;;;0.08;58.70;95346.13;4950651;29;20200;-61
2022/12/22 04:35:18;;;;;;;2.90;2.70;;;;;;;-0.47;59.67;95350.94;4950390;29;20211;-62
2022/12/22 04:37:44;;;;;;;4.70;3.75;;;;;;;-0.15;58.85;95335.94;4950410;29;20259;-61
2022/12/22 04:40:12;;;;;;;30.23;9.35;;;;;;;-0.44;60.59;95346.25;4950504;29;20231;-62
2022/12/22 04:42:39;;;;;;;15.77;11.35;;;;;;;0.10;59.58;95343.38;4950672;29;20214;-62
2022/12/22 04:45:06;;;;;;;4.60;3.50;;;;;;;0.47;58.30;95336.28;4950667;29;20272;-61
2022/12/22 04:47:33;;;;;;;10.02;8.40;;;;;;;0.48;59.41;95349.97;4950587;29;20243;-61
2022/12/22 04:50:00;;;;;;;8.05;5.95;;;;;;;0.46;58.78;95349.34;4950206;29;20208;-62
2022/12/22 04:52:27;;;;;;;6.05;3.70;;;;;;;0.60;58.47;95351.88;4950894;29;20192;-63
2022/12/22 04:54:54;;;;;;;7.43;6.22;;;;;;;0.67;57.95;95339.06;4950200;29;20669;-60
2022/12/22 04:57:21;;;;;;;5.18;4.78;;;;;;;0.55;57.81;95346.47;4950351;29;20211;-62
2022/12/22 04:59:48;;;;;;;13.57;5.38;;;;;;;0.20;57.82;95339.53;4950168;29;20231;-61
2022/12/22 05:02:15;;;;;;;7.93;6.55;;;;;;;-0.19;59.55;95334.72;4949561;29;20624;-62
2022/12/22 05:04:41;;;;;;;3.45;2.72;;;;;;;0.38;58.16;95339.97;4950242;29;20255;-61
2022/12/22 05:07:08;;;;;;;15.48;6.63;;;;;;;0.55;57.71;95338.72;4950367;29;20228;-61
2022/12/22 05:09:35;;;;;;;4.68;4.25;;;;;;;0.42;58.25;95332.66;4937957;29;20267;-64
2022/12/22 05:12:53;;;;;;;1.70;1.60;;;;;;;0.57;58.20;95335.97;4950825;28;20274;-64
2022/12/22 05:14:49;;;;;;;11.18;5.25;;;;;;;0.55;57.76;95327.63;4953981;29;20235;-62
2022/12/22 05:17:16;;;;;;;6.53;5.38;;;;;;;0.60;57.62;95343.34;4954201;29;20278;-62
2022/12/22 05:19:43;;;;;;;4.28;3.83;;;;;;;0.49;58.01;95334.31;4956755;28;20202;-65
2022/12/22 05:22:10;;;;;;;1.20;1.20;;;;;;;0.63;57.60;95336.06;4942616;29;20255;-63
2022/12/22 05:24:37;;;;;;;2.55;2.05;;;;;;;0.64;57.59;95340.22;4954060;29;20200;-63
2022/12/22 05:27:05;;;;;;;5.68;3.05;;;;;;;0.59;57.46;95339.97;4944201;29;20247;-65
2022/12/22 05:29:32;;;;;;;9.27;3.55;;;;;;;0.54;57.36;95324.25;4936811;29;20189;-66
2022/12/22 05:31:59;;;;;;;10.27;6.10;;;;;;;0.55;57.76;95354.19;4940381;29;20240;-63
2022/12/22 05:34:26;;;;;;;12.90;4.20;;;;;;;0.85;57.38;95345.38;4933782;29;20727;-65
2022/12/22 05:36:53;;;;;;;3.55;3.28;;;;;;;0.78;57.17;95344.53;4940133;29;20203;-64
2022/12/22 05:39:19;;;;;;;1.73;1.65;;;;;;;0.69;57.16;95345.59;4953581;29;20203;-63
2022/12/22 05:41:46;;;;;;;6.03;5.43;;;;;;;0.58;57.39;95347.91;4948373;29;20204;-67
2022/12/22 05:44:13;;;;;;;3.72;1.80;;;;;;;0.72;57.61;95345.25;4937146;29;20740;-61
2022/12/22 05:46:40;;;;;;;13.52;7.13;;;;;;;0.60;57.54;95344.13;4953664;29;20211;-62
2022/12/22 05:49:07;;;;;;;9.68;4.05;;;;;;;0.66;57.44;95340.03;4950314;29;20260;-61
2022/12/22 05:51:34;;;;;;;6.93;5.30;;;;;;;0.71;57.36;95343.66;4944140;29;20258;-64
2022/12/22 05:54:01;;;;;;;5.03;3.67;;;;;;;0.72;56.97;95334.94;4953035;29;20188;-65
2022/12/22 05:56:28;;;;;;;1.58;1.50;;;;;;;0.64;57.49;95342.78;4935875;29;20614;-62
2022/12/22 05:58:54;;;;;;;5.57;4.15;;;;;;;0.70;57.20;95342.06;4952302;29;20223;-65
2022/12/22 06:01:21;;;;;;;10.30;9.23;;;;;;;0.94;58.92;95341.69;4964720;28;20243;-61
2022/12/22 06:03:48;;;;;;;9.07;4.90;;;;;;;1.07;57.71;95359.06;4946140;28;20619;-67
2022/12/22 06:06:22;;;;;;;4.55;3.10;;;;;;;0.88;57.57;95352.75;4946992;29;20262;-64
2022/12/22 06:08:49;;;;;;;8.38;7.03;;;;;;;0.74;57.61;95353.63;4952406;29;20224;-63
2022/12/22 06:11:17;;;;;;;30.75;6.47;;;;;;;0.86;57.07;95349.56;4953635;29;20589;-62
2022/12/22 06:13:45;;;;;;;4.85;3.25;;;;;;;0.86;57.19;95346.97;4953743;29;20596;-66
2022/12/22 06:16:11;;;;;;;3.08;1.75;;;;;;;0.84;57.04;95345.59;4952341;29;20204;-64
2022/12/22 06:18:38;;;;;;;2.40;2.22;;;;;;;0.81;57.26;95349.31;4953407;29;20570;-63
2022/12/22 06:21:05;;;;;;;4.20;3.35;;;;;;;0.88;57.24;95341.63;4953796;29;20196;-62
2022/12/22 06:23:32;;;;;;;5.13;4.63;;;;;;;0.85;56.89;95352.31;4952902;28;20644;-63
2022/12/22 06:26:01;;;;;;;6.90;5.63;;;;;;;0.91;57.56;95339.47;4953090;29;20200;-63
2022/12/22 06:28:28;;;;;;;6.28;2.90;;;;;;;0.78;57.41;95344.53;4953115;29;20288;-62
2022/12/22 06:30:55;;;;;;;12.40;4.95;;;;;;;0.82;57.26;95343.16;4953312;29;20294;-62
2022/12/22 06:33:22;;;;;;;2.40;2.25;;;;;;;0.91;57.00;95349.00;4953606;29;20206;-62
2022/12/22 06:35:49;;;;;;;2.10;1.63;;;;;;;1.00;57.12;95361.56;4953443;29;20204;-63
2022/12/22 06:38:24;;;;;;;8.75;6.90;;;;;;;0.89;57.66;95361.28;4952830;29;20211;-62
2022/12/22 06:40:51;;;;;;;8.35;3.38;;;;;;;1.06;57.94;95361.84;4953503;29;20282;-63
2022/12/22 06:43:18;;;;;;;4.65;4.30;;;;;;;1.18;57.22;95357.78;4953540;29;20391;-63
2022/12/22 06:45:44;;;;;;;2.22;2.10;;;;;;;1.32;57.27;95354.28;4953228;29;20332;-61
2022/12/22 06:48:12;;;;;;;7.32;3.97;;;;;;;1.40;56.96;95359.34;4953225;29;20223;-64
2022/12/22 06:50:39;;;;;;;6.47;3.53;;;;;;;1.54;56.52;95355.84;4953352;29;20287;-63
2022/12/22 06:53:06;;;;;;;2.72;2.53;;;;;;;1.60;56.48;95355.09;4952817;29;20222;-63
2022/12/22 06:55:34;;;;;;;9.27;3.63;;;;;;;1.62;56.44;95358.31;4952893;29;20208;-63
2022/12/22 06:58:01;;;;;;;4.72;4.28;;;;;;;1.82;56.25;95364.38;4952916;29;20200;-63
2022/12/22 07:00:28;;;;;;;1.33;1.23;;;;;;;1.98;55.86;95358.91;4952681;29;20267;-62
2022/12/22 07:02:55;;;;;;;6.00;5.53;;;;;;;2.08;55.85;95362.72;4952823;29;20234;-65
2022/12/22 07:05:23;;;;;;;3.28;3.05;;;;;;;2.18;55.34;95349.47;4952689;29;20204;-65
2022/12/22 07:07:51;;;;;;;3.40;3.13;;;;;;;2.21;55.26;95354.22;4940204;29;20244;-64
2022/12/22 07:10:56;;;;;;;5.82;3.30;;;;;;;2.20;55.38;95357.81;4952812;29;20714;-62
2022/12/22 07:13:17;;;;;;;5.15;4.65;;;;;;;2.49;55.09;95360.13;4952580;29;20287;-64
2022/12/22 07:15:47;;;;;;;2.25;2.05;;;;;;;2.31;55.78;95353.88;4952420;29;20714;-65
2022/12/22 07:18:23;;;;;;;2.72;2.42;;;;;;;2.44;55.37;95359.91;4951723;29;20613;-64
2022/12/22 07:20:50;;;;;;;8.18;3.42;;;;;;;2.42;54.91;95361.91;4952245;29;20200;-62
2022/12/22 07:23:17;;;;;;;7.13;4.20;;;;;;;2.53;55.32;95363.91;4952015;29;20210;-64
2022/12/22 07:25:44;;;;;;;4.55;3.97;;;;;;;2.46;55.50;95368.28;4952212;29;20262;-65
2022/12/22 07:28:11;;;;;;;0.80;0.80;;;;;;;2.50;55.57;95359.13;4951945;29;20714;-63
2022/12/22 07:30:46;;;;;;;3.10;2.50;;;;;;;2.58;55.46;95366.72;4951807;29;20222;-63
2022/12/22 07:33:12;;;;;;;7.85;2.55;;;;;;;2.65;55.23;95358.97;4951790;29;20208;-64
2022/12/22 07:35:39;;;;;;;1.75;1.65;;;;;;;2.76;55.01;95356.63;4951527;28;20659;-63
2022/12/22 07:38:06;;;;;;;18.55;6.57;;;;;;;2.83;55.13;95360.00;4951421;29;20271;-64
2022/12/22 07:40:33;;;;;;;1.02;0.93;;;;;;;2.79;55.25;95358.03;4951410;29;20239;-61
2022/12/22 07:43:07;;;;;;;5.18;2.03;;;;;;;2.85;54.92;95354.63;4951393;29;20207;-61
2022/12/22 07:45:35;;;;;;;1.75;1.60;;;;;;;2.90;55.10;95354.84;4951753;29;20271;-66
2022/12/22 07:50:23;;;;;;;1.77;1.52;;;;;;;2.99;55.43;95359.63;4951465;29;20624;-65
2022/12/22 07:51:01;;;;;;;3.33;3.00;;;;;;;3.12;55.06;95363.25;4951427;29;20960;-64
2022/12/22 07:53:28;;;;;;;1.20;1.20;;;;;;;3.19;54.89;95356.28;4951701;29;20199;-64
2022/12/22 07:55:54;;;;;;;3.50;3.20;;;;;;;3.26;54.70;95359.66;4951321;29;20193;-63
2022/12/22 07:58:21;;;;;;;1.20;1.10;;;;;;;3.46;54.26;95355.28;4951604;29;20227;-62
2022/12/22 08:00:48;;;;;;;2.05;0.90;;;;;;;3.59;54.08;95361.25;4951568;29;20355;-64
2022/12/22 08:03:15;;;;;;;6.32;4.47;;;;;;;3.81;53.38;95356.66;4951436;29;20288;-62
2022/12/22 08:05:42;;;;;;;2.00;1.80;;;;;;;3.90;53.13;95342.47;4951389;29;20235;-62
2022/12/22 08:08:08;;;;;;;1.65;1.38;;;;;;;4.04;53.13;95351.78;4951360;29;20240;-64
2022/12/22 08:10:35;;;;;;;9.85;3.25;;;;;;;4.29;52.58;95352.72;4951134;29;20211;-62
2022/12/22 08:13:02;;;;;;;2.92;1.55;;;;;;;4.18;52.44;95337.78;4951253;29;20204;-62
2022/12/22 08:15:29;;;;;;;1.85;1.75;;;;;;;4.25;52.71;95343.78;4950532;29;20745;-63
2022/12/22 08:17:56;;;;;;;1.48;1.38;;;;;;;4.38;52.44;95346.28;4950916;29;20674;-61
2022/12/22 08:20:23;;;;;;;3.47;2.80;;;;;;;4.40;52.30;95352.06;4950862;29;20307;-61
2022/12/22 08:22:49;;;;;;;1.48;1.38;;;;;;;4.77;51.54;95345.31;4950997;29;20207;-63
2022/12/22 08:25:17;;;;;;;4.47;4.03;;;;;;;4.90;51.29;95340.03;4949739;29;20207;-62
2022/12/22 08:27:48;;;;;;;1.98;1.33;;;;;;;5.07;51.28;95330.75;4947705;29;20212;-62
2022/12/22 08:30:15;;;;;;;8.32;4.97;;;;;;;5.02;50.79;95339.16;4929438;29;20201;-63
2022/12/22 08:32:47;;;;;;;1.15;1.10;;;;;;;5.34;50.68;95339.13;4945182;29;20196;-62
2022/12/22 08:35:14;;;;;;;1.67;1.58;;;;;;;5.53;50.29;95340.78;4944299;29;20265;-62
2022/12/22 08:37:44;;;;;;;3.50;2.08;;;;;;;5.58;49.50;95333.13;4940708;29;20202;-61
2022/12/22 08:40:15;;;;;;;5.32;3.83;;;;;;;6.09;48.72;95331.06;4942717;29;20252;-64
2022/12/22 08:42:42;;;;;;;6.70;3.20;;;;;;;6.45;47.84;95331.03;4950374;29;20307;-62
2022/12/22 08:45:10;;;;;;;4.90;3.35;;;;;;;6.94;47.12;95317.75;4948333;29;20353;-63
2022/12/22 08:47:37;;;;;;;6.82;4.00;;;;;;;7.17;45.82;95320.41;4948394;29;20224;-64
2022/12/22 08:50:05;;;;;;;1.40;1.30;;;;;;;7.69;45.88;95324.00;4948489;29;20278;-63
2022/12/22 08:52:31;;;;;;;1.33;1.27;;;;;;;7.59;45.87;95315.16;4948983;29;20204;-64
2022/12/22 08:54:58;;;;;;;0.60;0.60;;;;;;;7.73;45.32;95314.72;4948975;29;20204;-61
2022/12/22 08:57:25;;;;;;;2.90;2.65;;;;;;;7.72;44.81;95317.56;4949202;29;20683;-64
2022/12/22 08:59:52;;;;;;;18.05;3.35;;;;;;;7.43;45.40;95302.78;4949897;29;20291;-61
2022/12/22 09:02:18;;;;;;;0.85;0.85;;;;;;;7.57;44.72;95304.94;4950814;29;20267;-63
2022/12/22 09:04:45;;;;;;;1.10;1.08;;;;;;;7.49;44.97;95297.47;4950539;29;20203;-62
2022/12/22 09:07:12;;;;;;;2.63;2.42;;;;;;;7.61;45.25;95292.25;4950772;29;20298;-65
2022/12/22 09:09:39;;;;;;;1.77;1.63;;;;;;;7.92;45.31;95286.66;4950685;29;20218;-64
2022/12/22 09:12:06;;;;;;;1.13;1.13;;;;;;;7.92;44.04;95291.88;4950194;29;20200;-63
2022/12/22 09:14:33;;;;;;;0.83;0.83;;;;;;;7.96;44.58;95290.41;4951413;29;20450;-63
2022/12/22 09:17:00;;;;;;;6.53;3.20;;;;;;;7.89;44.40;95281.91;4950235;29;20555;-63
2022/12/22 09:19:27;;;;;;;4.60;3.57;;;;;;;8.03;45.27;95278.03;4950330;29;20196;-63
2022/12/22 09:21:54;;;;;;;3.20;2.33;;;;;;;8.33;44.19;95273.44;4949928;29;20447;-64
2022/12/22 09:24:21;;;;;;;1.35;1.27;;;;;;;8.70;43.47;95268.66;4950170;29;20454;-63
2022/12/22 09:26:48;;;;;;;1.03;0.60;;;;;;;8.92;43.34;95261.75;4949906;29;20215;-63
2022/12/22 09:29:15;;;;;;;1.97;1.50;;;;;;;8.63;43.48;95247.88;4949973;29;20487;-63
2022/12/22 09:31:42;;;;;;;0.67;0.67;;;;;;;8.97;43.14;95265.22;4949812;29;20436;-60
2022/12/22 09:34:10;;;;;;;2.87;2.27;;;;;;;9.34;42.59;95259.53;4950277;29;20444;-64
2022/12/22 09:36:43;;;;;;;1.83;1.73;;;;;;;9.25;41.67;95255.75;4949834;29;21005;-60
2022/12/22 09:39:10;;;;;;;2.57;1.80;;;;;;;9.08;42.40;95260.97;4950118;29;20451;-62
2022/12/22 09:41:50;;;;;;;2.57;1.33;;;;;;;9.14;42.72;95260.03;4949843;29;20463;-61
2022/12/22 09:44:22;;;;;;;1.97;1.80;;;;;;;9.43;42.19;95258.91;4949925;29;20604;-62
2022/12/22 09:46:51;;;;;;;1.47;1.43;;;;;;;9.44;41.68;95255.25;4950007;29;20875;-63
2022/12/22 09:49:19;;;;;;;0.67;0.67;;;;;;;9.49;42.02;95251.94;4950025;29;20491;-64
2022/12/22 09:51:50;;;;;;;2.77;2.57;;;;;;;9.45;41.90;95250.81;4937456;29;20970;-63
2022/12/22 09:54:18;;;;;;;7.53;5.40;;;;;;;9.51;41.07;95244.59;4950003;29;20452;-61
2022/12/22 09:56:45;;;;;;;1.33;1.23;;;;;;;9.95;41.01;95241.03;4950468;29;20814;-64
2022/12/22 09:59:14;;;;;;;2.50;2.30;;;;;;;9.90;40.44;95233.13;4952051;28;20558;-61
2022/12/22 10:01:56;;;;;;;2.73;2.23;;;;;;;10.03;40.56;95230.16;4953610;29;20462;-61
2022/12/22 10:04:59;;;;;;;3.20;1.83;;;;;;;10.15;39.89;95231.63;4953907;29;20443;-63
2022/12/22 10:07:31;;;;;;;2.17;2.07;;;;;;;9.77;39.68;95220.38;4952964;29;20546;-63
2022/12/22 10:10:23;;;;;;;3.10;2.00;;;;;;;9.91;40.58;95213.75;4953388;29;20533;-62
2022/12/22 10:12:58;;;;;;;2.17;1.43;;;;;;;9.72;41.20;95204.63;4942363;29;20585;-61
2022/12/22 10:15:26;;;;;;;4.10;2.47;;;;;;;9.91;40.75;95195.44;4953214;29;20478;-63
2022/12/22 10:18:09;;;;;;;3.20;2.90;;;;;;;10.03;40.45;95190.88;4953704;29;20530;-64
2022/12/22 10:20:38;;;;;;;2.73;2.53;;;;;;;9.52;40.57;95188.66;4953247;29;20514;-65
2022/12/22 10:23:14;;;;;;;4.67;3.23;;;;;;;9.54;45.12;95197.84;4936239;29;21028;-62
2022/12/22 10:25:55;;;;;;;4.73;4.27;;;;;;;9.49;41.72;95189.91;4954800;29;20539;-64
2022/12/22 10:28:46;;;;;;;5.67;3.93;;;;;;;9.78;41.20;95177.50;4954514;29;20521;-63
2022/12/22 10:31:19;;;;;;;2.40;1.93;;;;;;;9.72;41.27;95183.69;4952709;29;20455;-63
2022/12/22 10:33:51;;;;;;;9.80;3.23;;;;;;;9.95;41.04;95178.22;4941139;29;20436;-62
2022/12/22 10:36:23;;;;;;;1.20;1.13;;;;;;;10.16;40.85;95172.22;4952814;29;20443;-64
2022/12/22 10:39:04;;;;;;;5.80;3.10;;;;;;;10.05;39.81;95173.88;4952471;29;20479;-62
2022/12/22 10:41:35;;;;;;;3.03;2.67;;;;;;;9.72;41.06;95168.78;4952740;29;20447;-61
2022/12/22 10:44:18;;;;;;;5.43;2.77;;;;;;;9.90;41.74;95165.88;4952741;29;20566;-63
2022/12/22 10:46:50;;;;;;;5.93;3.47;;;;;;;9.82;41.60;95161.06;4952646;29;20447;-61
2022/12/22 10:49:29;;;;;;;3.33;1.77;;;;;;;9.69;41.05;95158.03;4952979;29;20475;-60
2022/12/22 10:52:16;;;;;;;3.30;3.00;;;;;;;9.87;41.22;95160.34;4941556;29;20489;-63
2022/12/22 10:54:46;;;;;;;2.40;1.97;;;;;;;10.03;41.13;95149.00;4952429;28;20451;-64
2022/12/22 10:57:13;;;;;;;5.07;1.80;;;;;;;10.16;40.62;95151.28;4952632;29;20973;-62
2022/12/22 10:59:48;;;;;;;3.80;3.50;;;;;;;10.23;40.44;95154.47;4952529;29;20447;-62
2022/12/22 11:02:33;;;;;;;2.40;2.27;;;;;;;9.93;40.95;95143.63;4952509;29;20462;-64
2022/12/22 11:05:06;;;;;;;3.50;2.57;;;;;;;10.26;40.17;95140.88;4952342;29;20617;-65
2022/12/22 11:07:38;;;;;;;2.30;2.10;;;;;;;10.10;40.41;95133.91;4952037;29;20510;-64
2022/12/22 11:10:27;;;;;;;1.60;1.50;;;;;;;10.04;40.01;95140.88;4951548;28;20954;-62
2022/12/22 11:12:54;;;;;;;3.73;2.50;;;;;;;10.00;40.22;95124.09;4949360;28;21012;-61
2022/12/22 11:15:27;;;;;;;2.30;2.10;;;;;;;10.16;40.26;95122.47;4956283;28;20551;-62
2022/12/22 11:18:21;;;;;;;2.20;1.90;;;;;;;10.28;40.43;95125.72;4952108;29;20447;-60
2022/12/22 11:21:00;;;;;;;1.97;1.77;;;;;;;10.62;40.02;95121.81;4939872;29;20942;-62
2022/12/22 11:23:43;;;;;;;2.70;1.77;;;;;;;10.09;38.96;95106.94;4951735;29;20447;-62
2022/12/22 11:26:30;;;;;;;5.27;4.73;;;;;;;10.06;38.39;95110.03;4951978;29;20450;-67
2022/12/22 11:29:16;;;;;;;1.33;1.23;;;;;;;10.40;39.50;95110.63;4939592;29;20495;-61
2022/12/22 11:31:45;;;;;;;2.97;2.77;;;;;;;10.74;39.23;95108.56;4951557;29;20453;-62
2022/12/22 11:34:22;;;;;;;3.60;1.47;;;;;;;10.71;39.52;95109.84;4951862;29;20829;-61
2022/12/22 11:37:27;;;;;;;7.93;3.23;;;;;;;10.62;39.22;95111.34;4951087;29;20525;-63
2022/12/22 11:40:14;;;;;;;5.77;2.83;;;;;;;10.82;38.66;95103.63;4951218;28;20509;-64
2022/12/22 11:43:08;;;;;;;0.63;0.63;;;;;;;10.69;38.99;95101.44;4951747;29;20919;-65
2022/12/22 11:45:50;;;;;;;2.27;1.60;;;;;;;10.60;38.87;95102.16;4940820;29;20476;-62
2022/12/22 11:48:35;;;;;;;2.77;2.57;;;;;;;10.74;40.45;95098.09;4951251;29;20838;-63
2022/12/22 11:51:13;;;;;;;3.70;2.37;;;;;;;11.28;38.88;95098.72;4951339;29;20484;-59
2022/12/22 11:54:12;;;;;;;4.37;3.07;;;;;;;12.30;37.27;95085.69;4951763;29;20514;-60
2022/12/22 11:56:43;;;;;;;1.10;0.83;;;;;;;13.07;36.07;95087.03;4939164;29;20455;-60
2022/12/22 11:59:28;;;;;;;5.33;2.63;;;;;;;13.64;34.77;95080.53;4951806;29;20450;-61
2022/12/22 12:02:01;;;;;;;1.07;1.07;;;;;;;13.96;34.09;95073.81;4951844;29;20443;-63
2022/12/22 12:04:57;;;;;;;2.50;2.17;;;;;;;14.21;32.29;95065.00;4951621;29;20455;-63
2022/12/22 12:07:26;;;;;;;2.50;2.27;;;;;;;14.69;33.02;95066.00;4951392;29;20451;-62
2022/12/22 12:10:23;;;;;;;3.03;2.63;;;;;;;15.49;32.27;95065.22;4950947;29;20490;-63
2022/12/22 12:13:09;;;;;;;3.37;2.83;;;;;;;16.20;31.01;95054.56;4931810;29;21003;-63
2022/12/22 12:15:43;;;;;;;7.20;4.50;;;;;;;17.03;30.98;95047.44;4948558;29;20546;-62
2022/12/22 12:18:30;;;;;;;6.83;4.40;;;;;;;16.83;30.44;95037.19;4950960;29;20451;-64
2022/12/22 12:21:26;;;;;;;8.57;4.47;;;;;;;17.15;30.26;95039.03;4940357;28;20884;-63
2022/12/22 12:24:12;;;;;;;8.60;5.50;;;;;;;16.16;30.39;95042.97;4950440;29;20440;-64
2022/12/22 12:27:15;;;;;;;3.47;3.27;;;;;;;16.37;31.01;95044.25;4950644;29;20514;-60
2022/12/22 12:29:58;;;;;;;4.53;4.07;;;;;;;15.39;31.47;95041.53;4950472;29;20490;-63
2022/12/22 12:33:02;;;;;;;4.73;3.10;;;;;;;16.41;29.98;95032.03;4950926;29;20865;-66
2022/12/22 12:35:52;;;;;;;5.30;4.30;;;;;;;17.12;29.06;95035.09;4951061;29;20456;-62
2022/12/22 12:38:32;;;;;;;5.57;5.13;;;;;;;16.42;30.36;95035.47;4938232;29;20452;-60
2022/12/22 12:41:28;;;;;;;1.73;1.57;;;;;;;16.64;29.88;95039.09;4950620;29;20964;-61
2022/12/22 12:43:56;;;;;;;3.43;3.10;;;;;;;17.61;28.42;95031.03;4950594;29;20534;-60
2022/12/22 12:46:53;;;;;;;3.17;2.87;;;;;;;18.66;26.70;95025.28;4950500;29;20930;-61
2022/12/22 12:49:59;;;;;;;2.07;1.93;;;;;;;18.54;26.10;95023.16;4950429;29;20487;-61
2022/12/22 12:52:38;;;;;;;5.27;3.47;;;;;;;18.06;26.83;95024.78;4950723;29;20575;-64
2022/12/22 12:55:28;;;;;;;7.07;3.50;;;;;;;17.47;27.98;95019.59;4938700;29;20440;-60
2022/12/22 12:58:02;;;;;;;10.23;4.23;;;;;;;16.11;28.49;95019.25;4916348;29;20444;-63
2022/12/22 13:00:31;;;;;;;2.80;2.60;;;;;;;17.11;28.52;95020.31;4950869;29;20454;-62
2022/12/22 13:03:09;;;;;;;3.23;2.93;;;;;;;16.90;27.87;95021.72;4950230;29;20450;-61
2022/12/22 13:05:59;;;;;;;5.43;3.87;;;;;;;17.03;28.89;95014.88;4950688;29;20994;-63
2022/12/22 13:08:30;;;;;;;3.40;3.10;;;;;;;16.66;28.20;95015.78;4950359;29;20478;-61
2022/12/22 13:10:56;;;;;;;4.07;3.70;;;;;;;16.40;29.19;95011.94;4950421;29;20454;-63
2022/12/22 13:13:23;;;;;;;12.63;4.17;;;;;;;16.04;28.54;95013.53;4950571;29;20510;-62
2022/12/22 13:15:59;;;;;;;4.77;3.83;;;;;;;15.72;31.25;95024.00;4950261;29;20439;-64
2022/12/22 13:18:29;;;;;;;3.37;3.13;;;;;;;15.40;31.55;95027.25;4950097;29;20455;-64
2022/12/22 13:20:58;;;;;;;6.13;4.13;;;;;;;15.04;32.14;95031.34;4932861;29;20866;-62
2022/12/22 13:24:05;;;;;;;4.17;3.20;;;;;;;14.41;32.54;95014.78;4949909;29;20499;-59
2022/12/22 13:26:54;;;;;;;2.97;2.73;;;;;;;13.44;33.64;95025.34;4950007;29;20522;-63
2022/12/22 13:29:20;;;;;;;2.67;2.17;;;;;;;13.12;34.23;95026.50;4949941;29;20501;-63
2022/12/22 13:32:26;;;;;;;4.07;3.67;;;;;;;12.63;34.66;95027.34;4950060;29;20443;-63
2022/12/22 13:35:20;;;;;;;5.30;3.37;;;;;;;12.42;34.97;95021.31;4913590;29;20545;-62
2022/12/22 13:37:58;;;;;;;3.53;3.27;;;;;;;11.91;35.98;95024.94;4953866;29;21302;-61
2022/12/22 13:40:30;;;;;;;5.97;3.43;;;;;;;11.84;35.69;95032.28;4953375;29;20462;-62
2022/12/22 13:43:19;;;;;;;2.20;2.00;;;;;;;11.15;36.58;95027.28;4953828;29;20489;-61
2022/12/22 13:45:52;;;;;;;4.97;3.07;;;;;;;10.85;38.16;95031.56;4953522;29;20570;-63
2022/12/22 13:48:29;;;;;;;2.77;1.97;;;;;;;11.16;37.47;95023.63;4953448;29;20451;-60
2022/12/22 13:51:02;;;;;;;3.23;2.93;;;;;;;11.11;37.51;95028.06;4953326;29;20541;-63
2022/12/22 13:53:40;;;;;;;1.00;1.00;;;;;;;11.09;37.98;95027.53;4942648;29;20539;-64
2022/12/22 13:56:37;;;;;;;3.43;3.13;;;;;;;11.11;37.21;95023.59;4954085;29;20462;-63
2022/12/22 13:59:13;;;;;;;2.33;2.23;;;;;;;11.08;37.49;95021.47;4953797;29;20726;-62
2022/12/22 14:01:55;;;;;;;2.40;1.40;;;;;;;11.11;37.87;95018.34;4953573;29;20501;-62
2022/12/22 14:04:22;;;;;;;0.70;0.70;;;;;;;11.06;37.96;95023.56;4953649;29;20951;-62
2022/12/22 14:06:49;;;;;;;2.00;1.90;;;;;;;10.82;37.98;95025.00;4953598;29;20945;-63
2022/12/22 14:09:26;;;;;;;4.33;3.13;;;;;;;11.06;37.62;95013.09;4952936;29;20582;-63
2022/12/22 14:11:59;;;;;;;3.97;2.70;;;;;;;11.07;37.85;95014.66;4953145;29;20542;-62
2022/12/22 14:14:35;;;;;;;1.90;1.80;;;;;;;10.81;37.76;95020.81;4953441;29;20439;-62
2022/12/22 14:17:04;;;;;;;3.93;3.53;;;;;;;10.70;38.35;95018.38;4953135;29;20514;-61
2022/12/22 14:19:34;;;;;;;2.33;2.13;;;;;;;10.89;38.00;95017.69;4953214;29;20439;-61
2022/12/22 14:22:12;;;;;;;3.23;2.93;;;;;;;10.65;38.40;95011.28;4953149;29;20776;-63
2022/12/22 14:24:53;;;;;;;15.57;3.77;;;;;;;10.53;38.37;95012.50;4953318;29;20443;-62
2022/12/22 14:27:45;;;;;;;1.60;1.50;;;;;;;10.53;38.69;95015.91;4941111;29;20451;-62
2022/12/22 14:30:20;;;;;;;1.37;1.27;;;;;;;10.26;38.97;95012.56;4952724;29;20907;-64
2022/12/22 14:32:50;;;;;;;1.27;1.23;;;;;;;10.51;38.48;95015.34;4952939;29;21229;-62
2022/12/22 14:35:21;;;;;;;2.53;2.33;;;;;;;10.45;38.40;95013.75;4940518;29;20958;-63
2022/12/22 14:38:01;;;;;;;5.00;3.53;;;;;;;10.41;38.80;95010.06;4949585;29;20571;-59
2022/12/22 14:40:42;;;;;;;1.33;1.30;;;;;;;10.47;37.95;95014.31;4944969;29;20449;-62
2022/12/22 14:43:17;;;;;;;5.23;4.20;;;;;;;10.43;38.70;95013.22;4936444;29;20515;-62
2022/12/22 14:45:46;;;;;;;2.20;2.00;;;;;;;10.17;38.61;95017.47;4938733;29;21080;-61
2022/12/22 14:48:44;;;;;;;1.67;1.57;;;;;;;10.19;38.73;95020.63;4951321;29;20451;-63
2022/12/22 14:51:18;;;;;;;1.80;1.70;;;;;;;10.07;39.18;95013.97;4946494;29;20566;-60
2022/12/22 14:53:55;;;;;;;1.73;1.63;;;;;;;9.76;39.30;95019.94;4937829;29;20423;-60
2022/12/22 14:56:24;;;;;;;2.50;2.33;;;;;;;9.82;39.40;95021.56;4952199;29;20455;-61
2022/12/22 14:59:05;;;;;;;1.43;1.33;;;;;;;9.89;39.57;95024.78;4951878;29;20458;-63
2022/12/22 15:01:32;;;;;;;6.23;3.80;;;;;;;9.92;38.89;95021.66;4935131;29;20456;-64
2022/12/22 15:04:19;;;;;;;2.50;2.30;;;;;;;9.77;39.28;95021.50;4951116;29;20871;-60
2022/12/22 15:06:47;;;;;;;5.47;3.60;;;;;;;9.70;39.33;95031.38;4940684;29;20435;-61
2022/12/22 15:09:14;;;;;;;4.93;3.27;;;;;;;9.57;40.03;95029.16;4952959;28;20594;-65
2022/12/22 15:12:04;;;;;;;11.63;2.77;;;;;;;9.68;39.86;95025.59;4962796;28;20546;-62
2022/12/22 15:14:34;;;;;;;1.73;1.63;;;;;;;9.68;39.39;95026.41;4956982;28;20962;-61
2022/12/22 15:17:11;;;;;;;1.87;1.67;;;;;;;9.49;40.14;95026.97;4970837;28;20450;-64
2022/12/22 15:19:38;;;;;;;2.00;1.90;;;;;;;9.59;39.91;95027.06;4970678;28;20443;-60
2022/12/22 15:22:06;;;;;;;2.57;2.37;;;;;;;9.50;40.24;95028.56;4967416;28;20572;-61
2022/12/22 15:24:33;;;;;;;3.17;2.90;;;;;;;9.50;40.13;95026.72;4951580;29;21208;-63
2022/12/22 15:27:00;;;;;;;11.77;2.90;;;;;;;9.36;40.44;95033.34;4951088;28;20447;-60
2022/12/22 15:29:27;;;;;;;2.30;2.10;;;;;;;9.40;40.58;95034.44;4951437;28;20522;-64
2022/12/22 15:31:53;;;;;;;1.43;1.33;;;;;;;9.36;40.72;95033.34;4963802;28;20443;-61
2022/12/22 15:34:24;;;;;;;3.03;2.83;;;;;;;9.16;40.94;95036.53;4958439;28;20447;-62
2022/12/22 15:36:51;;;;;;;4.37;3.97;;;;;;;9.27;41.14;95044.50;4957012;28;20512;-60
2022/12/22 15:39:20;;;;;;;3.63;2.30;;;;;;;9.14;40.81;95043.81;4950458;28;20487;-62
2022/12/22 15:41:47;;;;;;;0.90;0.90;;;;;;;9.07;41.54;95045.81;4944036;28;20502;-62